KTIK/TIK METAR and TAF weather

Enter ICAO airport designator
Station Type Date Time Source
KTIK METAR 2022/05/23 13:56 UTC NOAA

KTIK 231356Z 07005KT 10SM -TSRA BKN009CB 11/11 A3015 RMK AO2A TSB03E49TSB55 SLP216 P0002 T01130111 $


Station Type Date Time Source
KTIK Decoded METAR 2022/05/23 13:56 UTC NOAA

Tinker Air Force Base, OK, United States (KTIK) 35-25N 097-23W 397M
May 23, 2022 - 09:56 AM EDT / 2022.05.23 1356 UTC
Wind: from the ENE (070 degrees) at 6 MPH (5 KT):0
Visibility: 10 mile(s):0
Sky conditions: mostly cloudy
Weather: light rain with thunder; Cumulonimbus clouds observed
Precipitation last hour: 0.02 inches
Temperature: 52.3 F (11.3 C)
Dew Point: 52.0 F (11.1 C)
Relative Humidity: 98%
Pressure (altimeter): 30.15 in. Hg (1020 hPa)
ob: KTIK 231356Z 07005KT 10SM -TSRA BKN009CB 11/11 A3015 RMK AO2A TSB03E49TSB55 SLP216 P0002 T01130111
cycle: 14

Station Type Date Time Source
KTIK TAF 2022/05/23 13:37 UTC NOAA

TAF
AMD KTIK 231330Z 2313/2415 08010KT 8000 BR OVC015 QNH3008INS
TEMPO 2313/2316 4800 -TSRA OVC010CB
BECMG 2317/2318 10012KT 6000 -SHRA BR OVC012 QNH2999INS
TEMPO 2318/2321 4800 -TSRA BKN007 OVC012CB
BECMG 2320/2321 10010KT 8000 BR OVC010 QNH2994INS
BECMG 2402/2403 11010KT 8000 BR OVC008 QNH2988INS
BECMG 2407/2408 12010KT 6000 -SHRA BR OVC008 QNH2985INS
TEMPO 2408/2411 3200 -TSRA OVC006CB TX17/2322Z TN12/2313Z

Example: see airport list